Terminal Aerodrome Forecast
Issued by NWS Wakefield, VA

Home | Current Version | Previous Version | Text Only | Print | Product List | Glossary On
Versions: 1 2 3 4 5 6 7 8 9 10 11 12 13 14 15 16 17 18 19 20
000
FTUS41 KAKQ 010500
TAFECG
TAF
KECG 010532Z 0106/0206 20006KT P6SM BKN250
     FM010900 22006KT P6SM SCT006 BKN250
      TEMPO 0109/0112 BKN006
     FM011400 21010KT P6SM BKN250
     FM011700 21010G15KT P6SM BKN040
     FM012200 20010KT P6SM BKN250=

USA.gov is the U.S. government's official web portal to all federal, state and local government web resources and services.